Time;durP1;ratioP1;P1;durP2;ratioP2;P2;SDS_P1;SDS_P2;PMS_P1;PMS_P2;Temp;Humidity;BMP_temperature;BMP_pressure;BME280_temperature;BME280_humidity;BME280_pressure;Samples;Min_cycle;Max_cycle;Signal;HPM_P1;HPM_P2
2023/12/17 00:00:46;;;;;;;24.37;10.67;;;;;;;8.09;100.00;102629.75;5016652;28;20121;-75
2023/12/17 00:03:11;;;;;;;22.77;10.73;;;;;;;8.20;100.00;102645.03;5008928;28;20029;-77
2023/12/17 00:05:37;;;;;;;27.30;10.57;;;;;;;8.18;100.00;102630.97;4998720;28;20073;-77
2023/12/17 00:08:02;;;;;;;18.33;10.17;;;;;;;8.17;100.00;102640.75;4999884;28;20034;-77
2023/12/17 00:10:27;;;;;;;24.93;12.33;;;;;;;8.21;100.00;102633.41;5005695;28;20524;-76
2023/12/17 00:12:53;;;;;;;24.48;12.13;;;;;;;8.13;100.00;102623.28;5010998;28;20033;-77
2023/12/17 00:15:18;;;;;;;28.73;12.70;;;;;;;8.25;100.00;102632.25;5034290;28;20116;-77
2023/12/17 00:17:44;;;;;;;21.37;9.60;;;;;;;8.18;100.00;102630.97;5014989;28;20300;-77
2023/12/17 00:20:09;;;;;;;22.33;11.53;;;;;;;8.15;100.00;102626.69;5019772;28;20041;-77
2023/12/17 00:22:36;;;;;;;20.17;10.82;;;;;;;8.17;100.00;102614.16;5013637;28;20036;-77
2023/12/17 00:25:02;;;;;;;25.13;12.73;;;;;;;8.25;100.00;102621.63;5024941;28;20117;-77
2023/12/17 00:27:27;;;;;;;19.15;10.63;;;;;;;8.22;100.00;102606.72;5027023;28;20103;-76
2023/12/17 00:29:52;;;;;;;29.37;13.10;;;;;;;8.20;100.00;102589.16;4998949;28;20497;-76
2023/12/17 00:32:18;;;;;;;25.40;10.93;;;;;;;8.15;100.00;102597.44;5034329;28;20410;-77
2023/12/17 00:34:43;;;;;;;26.70;10.80;;;;;;;8.29;100.00;102609.81;5021967;28;20049;-76
2023/12/17 00:37:08;;;;;;;25.47;11.00;;;;;;;8.31;100.00;102594.63;5016644;28;20026;-76
2023/12/17 00:39:34;;;;;;;23.60;11.63;;;;;;;8.21;100.00;102594.34;5005279;28;20030;-78
2023/12/17 00:41:59;;;;;;;23.67;10.17;;;;;;;8.22;100.00;102601.38;5016944;28;20030;-77
2023/12/17 00:44:24;;;;;;;30.90;11.17;;;;;;;8.17;100.00;102597.31;5021800;28;20504;-76
2023/12/17 00:46:50;;;;;;;26.53;10.20;;;;;;;8.25;100.00;102613.63;5032751;28;20033;-76
2023/12/17 00:49:15;;;;;;;21.57;9.50;;;;;;;8.24;100.00;102609.25;5034803;28;20040;-77
2023/12/17 00:51:40;;;;;;;30.67;11.40;;;;;;;8.23;100.00;102597.75;5013245;28;20110;-76
2023/12/17 00:54:06;;;;;;;18.60;9.47;;;;;;;8.30;100.00;102598.22;5008503;28;20094;-76
2023/12/17 00:56:31;;;;;;;23.57;10.43;;;;;;;8.28;100.00;102593.94;5021734;28;20084;-76
2023/12/17 00:58:56;;;;;;;21.97;11.20;;;;;;;8.20;100.00;102591.81;5025403;28;20088;-76
2023/12/17 01:01:22;;;;;;;23.33;10.13;;;;;;;8.17;100.00;102579.56;5017873;28;20125;-76
2023/12/17 01:03:47;;;;;;;26.17;11.60;;;;;;;8.17;100.00;102584.00;5025808;28;20087;-76
2023/12/17 01:06:12;;;;;;;23.10;9.27;;;;;;;8.21;100.00;102580.19;5032207;28;20403;-78
2023/12/17 01:08:38;;;;;;;23.27;10.60;;;;;;;8.23;100.00;102580.94;5021881;28;20406;-76
2023/12/17 01:11:03;;;;;;;28.93;11.03;;;;;;;8.25;100.00;102568.41;5038242;28;20096;-78
2023/12/17 01:13:29;;;;;;;26.75;10.85;;;;;;;8.22;100.00;102566.78;5007893;28;20033;-77
2023/12/17 01:15:54;;;;;;;26.03;10.33;;;;;;;8.24;100.00;102558.69;5010513;28;20030;-76
2023/12/17 01:18:20;;;;;;;22.03;10.60;;;;;;;8.25;100.00;102565.75;5026979;28;20476;-77
2023/12/17 01:20:45;;;;;;;23.17;10.87;;;;;;;8.27;100.00;102552.34;5024662;28;20121;-76
2023/12/17 01:23:11;;;;;;;25.63;10.47;;;;;;;8.29;100.00;102545.97;5011745;28;20383;-76
2023/12/17 01:25:36;;;;;;;24.15;10.55;;;;;;;8.18;100.00;102545.81;5020858;28;20138;-77
2023/12/17 01:28:01;;;;;;;21.80;10.50;;;;;;;8.27;100.00;102555.84;5026185;28;20046;-77
2023/12/17 01:30:27;;;;;;;27.50;11.23;;;;;;;8.33;100.00;102563.41;5025206;28;20112;-76
2023/12/17 01:32:54;;;;;;;28.50;9.83;;;;;;;8.22;100.00;102547.31;5009697;28;20033;-75
2023/12/17 01:35:19;;;;;;;26.67;10.73;;;;;;;8.19;100.00;102550.16;5023661;28;20368;-78
2023/12/17 01:37:44;;;;;;;28.70;11.07;;;;;;;8.12;100.00;102547.06;5020043;28;20075;-78
2023/12/17 01:40:10;;;;;;;24.20;10.33;;;;;;;8.21;100.00;102558.91;5014045;28;20033;-78
2023/12/17 01:42:36;;;;;;;24.80;11.32;;;;;;;8.26;100.00;102572.75;5016636;28;20311;-79
2023/12/17 01:45:01;;;;;;;30.13;11.60;;;;;;;8.24;100.00;102556.91;5032594;28;20115;-77
2023/12/17 01:47:26;;;;;;;30.43;12.13;;;;;;;8.25;100.00;102573.72;5018426;28;20032;-76
2023/12/17 01:49:52;;;;;;;27.55;11.38;;;;;;;8.25;100.00;102563.91;5006132;28;20480;-78
2023/12/17 01:52:18;;;;;;;18.80;9.75;;;;;;;8.24;100.00;102558.69;5030034;28;20017;-77
2023/12/17 01:54:44;;;;;;;32.72;11.40;;;;;;;8.18;100.00;102561.78;5008515;28;20132;-76
2023/12/17 01:57:09;;;;;;;27.30;11.80;;;;;;;8.19;100.00;102566.13;5010958;28;20041;-78
2023/12/17 01:59:35;;;;;;;25.40;11.07;;;;;;;8.23;100.00;102565.81;5011149;28;20037;-78
2023/12/17 02:02:02;;;;;;;;;;;;;;;8.23;100.00;102580.94;5009824;28;20284;-77
2023/12/17 02:04:27;;;;;;;29.25;11.35;;;;;;;8.29;100.00;102591.19;5021323;28;19917;-78
2023/12/17 02:06:53;;;;;;;31.52;11.98;;;;;;;8.24;100.00;102595.94;5032239;28;20029;-77
2023/12/17 02:09:18;;;;;;;26.53;11.50;;;;;;;8.24;100.00;102601.28;5037256;28;20029;-78
2023/12/17 02:11:43;;;;;;;29.42;12.20;;;;;;;8.24;100.00;102601.28;5020170;28;20098;-77
2023/12/17 02:14:09;;;;;;;29.50;12.53;;;;;;;8.30;100.00;102594.69;5023664;28;20042;-77
2023/12/17 02:16:34;;;;;;;29.10;11.80;;;;;;;8.33;100.00;102587.34;5022664;28;20081;-77
2023/12/17 02:19:01;;;;;;;29.87;11.93;;;;;;;8.28;100.00;102565.53;5035708;28;20276;-78
2023/12/17 02:21:26;;;;;;;27.50;11.82;;;;;;;8.29;100.00;102569.91;5032914;28;20037;-77
2023/12/17 02:23:53;;;;;;;35.05;11.50;;;;;;;8.23;100.00;102570.31;5036214;28;20084;-78
2023/12/17 02:26:18;;;;;;;;;;;;;;;8.25;100.00;102573.72;5040795;28;20029;-77
2023/12/17 02:28:45;;;;;;;25.83;10.52;;;;;;;8.30;100.00;102581.41;5038780;28;19919;-77
2023/12/17 02:31:10;;;;;;;26.20;11.82;;;;;;;8.34;100.00;102582.91;5037279;28;20582;-78
2023/12/17 02:33:35;;;;;;;26.23;11.07;;;;;;;8.22;100.00;102568.63;5036211;28;20151;-78
2023/12/17 02:36:01;;;;;;;26.83;11.27;;;;;;;8.34;100.00;102567.78;5011291;28;20029;-78
2023/12/17 02:38:26;;;;;;;27.80;12.53;;;;;;;8.33;100.00;102567.88;5019801;28;20041;-77
2023/12/17 02:40:51;;;;;;;29.93;11.50;;;;;;;8.29;100.00;102559.25;5032818;28;20297;-77
2023/12/17 02:43:17;;;;;;;32.43;11.13;;;;;;;8.28;100.00;102554.88;5020225;28;20025;-78
2023/12/17 02:45:42;;;;;;;40.73;13.10;;;;;;;8.29;100.00;102548.63;5024363;28;20037;-78
2023/12/17 02:48:07;;;;;;;30.47;11.73;;;;;;;8.32;100.00;102547.56;5007075;28;20295;-77
2023/12/17 02:50:33;;;;;;;21.93;11.03;;;;;;;8.29;100.00;102531.78;5002260;28;20025;-77
2023/12/17 02:52:58;;;;;;;30.23;12.10;;;;;;;8.32;100.00;102537.75;5016794;28;20563;-77
2023/12/17 02:55:24;;;;;;;23.20;9.70;;;;;;;8.36;100.00;102531.28;5032952;28;20851;-77
2023/12/17 02:57:49;;;;;;;27.67;11.93;;;;;;;8.48;100.00;102534.09;5023774;28;20404;-78
2023/12/17 03:00:14;;;;;;;24.47;10.27;;;;;;;8.34;100.00;102513.72;5027522;28;20515;-78
2023/12/17 03:02:40;;;;;;;19.58;10.65;;;;;;;8.41;100.00;102531.00;5007660;28;20480;-77
2023/12/17 03:05:06;;;;;;;26.25;11.48;;;;;;;8.43;100.00;102531.75;5012536;28;20040;-78
2023/12/17 03:07:31;;;;;;;31.05;10.80;;;;;;;8.40;100.00;102511.50;5005805;28;20654;-77
2023/12/17 03:09:56;;;;;;;35.73;13.23;;;;;;;8.49;100.00;102503.84;5005437;28;20483;-76
2023/12/17 03:12:22;;;;;;;33.50;12.17;;;;;;;8.42;100.00;102490.94;5005670;28;20025;-77
2023/12/17 03:14:47;;;;;;;22.70;8.80;;;;;;;8.34;100.00;102471.97;5018524;28;20033;-77
2023/12/17 03:17:12;;;;;;;27.52;10.82;;;;;;;8.51;100.00;102500.13;4989640;28;20021;-78
2023/12/17 03:19:38;;;;;;;24.73;8.85;;;;;;;8.52;100.00;102503.63;5005817;28;20061;-77
2023/12/17 03:22:03;;;;;;;20.27;10.27;;;;;;;8.54;100.00;102489.25;5018608;28;20497;-77
2023/12/17 03:24:28;;;;;;;21.93;10.57;;;;;;;8.61;100.00;102495.00;5017352;28;20022;-78
2023/12/17 03:26:54;;;;;;;25.00;9.53;;;;;;;8.58;100.00;102500.53;4989476;28;20029;-78
2023/12/17 03:29:19;;;;;;;26.87;10.57;;;;;;;8.41;100.00;102491.91;4991871;28;20431;-78
2023/12/17 03:31:45;;;;;;;21.10;10.18;;;;;;;8.56;100.00;102490.00;5027302;28;20139;-77
2023/12/17 03:34:10;;;;;;;26.77;10.23;;;;;;;8.60;100.00;102490.66;5024924;28;20171;-76
2023/12/17 03:36:36;;;;;;;27.75;10.35;;;;;;;8.49;100.00;102486.06;5015999;28;20133;-77
2023/12/17 03:39:03;;;;;;;19.33;9.68;;;;;;;8.59;100.00;102494.25;5005243;28;20103;-77
2023/12/17 03:41:28;;;;;;;24.20;9.90;;;;;;;8.57;100.00;102485.50;5006614;28;20108;-77
2023/12/17 03:43:56;;;;;;;22.85;10.18;;;;;;;8.43;100.00;102466.03;5000490;28;20124;-80
2023/12/17 03:46:23;;;;;;;27.35;11.93;;;;;;;8.52;100.00;102477.00;4993628;28;20029;-77
2023/12/17 03:48:49;;;;;;;24.95;10.85;;;;;;;8.48;100.00;102486.19;5023649;28;20526;-77
2023/12/17 03:51:15;;;;;;;28.65;10.77;;;;;;;8.49;100.00;102477.22;4994427;28;20105;-77
2023/12/17 03:53:40;;;;;;;23.48;9.98;;;;;;;8.45;100.00;102481.88;5010594;28;20037;-78
2023/12/17 03:56:08;;;;;;;29.53;11.20;;;;;;;8.48;100.00;102488.84;5021480;28;21031;-77
2023/12/17 03:58:34;;;;;;;25.80;10.32;;;;;;;8.49;100.00;102491.38;5005787;28;20288;-76
2023/12/17 04:01:00;;;;;;;25.88;10.80;;;;;;;8.58;100.00;102498.72;5005350;28;20067;-78
2023/12/17 04:03:25;;;;;;;28.95;10.73;;;;;;;8.60;100.00;102493.31;5005267;28;20349;-77
2023/12/17 04:05:51;;;;;;;23.43;10.23;;;;;;;8.54;100.00;102489.25;5005618;28;20029;-77
2023/12/17 04:08:16;;;;;;;28.47;10.77;;;;;;;8.55;100.00;102492.78;5012439;28;20064;-76
2023/12/17 04:10:42;;;;;;;22.23;11.23;;;;;;;8.51;100.00;102489.47;5005290;28;20030;-76
2023/12/17 04:13:07;;;;;;;27.70;11.18;;;;;;;8.47;100.00;102487.13;5019582;28;20563;-77
2023/12/17 04:15:32;;;;;;;24.03;9.47;;;;;;;8.53;100.00;102486.72;5021148;28;20116;-79
2023/12/17 04:17:58;;;;;;;24.30;10.30;;;;;;;8.52;100.00;102492.97;5000465;28;20365;-78
2023/12/17 04:20:23;;;;;;;19.63;9.30;;;;;;;8.56;100.00;102490.00;5025343;28;20060;-77
2023/12/17 04:22:49;;;;;;;27.50;9.23;;;;;;;8.49;100.00;102477.22;5006000;28;20108;-78
2023/12/17 04:25:14;;;;;;;25.35;9.10;;;;;;;8.52;100.00;102490.31;5018978;28;20037;-78
2023/12/17 04:27:40;;;;;;;22.27;8.87;;;;;;;8.55;100.00;102493.63;4998962;28;20107;-78
2023/12/17 04:30:06;;;;;;;18.90;8.57;;;;;;;8.54;100.00;102486.59;5017661;28;20049;-77
2023/12/17 04:32:31;;;;;;;22.45;9.55;;;;;;;8.56;100.00;102486.47;5024126;28;20550;-78
2023/12/17 04:34:57;;;;;;;23.07;9.77;;;;;;;8.56;100.00;102476.69;4988715;28;20026;-79
2023/12/17 04:37:22;;;;;;;23.65;10.40;;;;;;;8.53;100.00;102481.38;5021349;28;20064;-78
2023/12/17 04:39:48;;;;;;;24.80;9.43;;;;;;;8.55;100.00;102480.31;5006906;28;20038;-78
2023/12/17 04:42:14;;;;;;;26.33;10.38;;;;;;;8.50;100.00;102482.44;5012551;28;20293;-78
2023/12/17 04:44:39;;;;;;;30.57;9.87;;;;;;;8.63;100.00;102487.75;5008015;28;20034;-78
2023/12/17 04:47:05;;;;;;;19.83;10.60;;;;;;;8.60;100.00;102474.66;4996315;28;20484;-78
2023/12/17 04:49:30;;;;;;;23.13;9.60;;;;;;;8.48;100.00;102465.72;5019104;28;20034;-79
2023/12/17 04:51:55;;;;;;;20.70;9.53;;;;;;;8.57;100.00;102482.84;5031682;28;20021;-79
2023/12/17 04:54:21;;;;;;;30.60;12.07;;;;;;;8.56;100.00;102486.47;5020603;28;20038;-76
2023/12/17 04:56:46;;;;;;;22.20;9.43;;;;;;;8.59;100.00;102491.59;5019243;28;20033;-77
2023/12/17 04:59:12;;;;;;;28.57;9.33;;;;;;;8.51;100.00;102481.47;4997133;28;20124;-77
2023/12/17 05:01:37;;;;;;;24.33;9.50;;;;;;;8.45;100.00;102479.22;5007490;28;20170;-78
2023/12/17 05:04:02;;;;;;;22.10;8.97;;;;;;;8.59;100.00;102496.91;5007506;28;20076;-77
2023/12/17 05:06:28;;;;;;;25.70;10.45;;;;;;;8.61;100.00;102500.31;5036725;28;20125;-77
2023/12/17 05:08:53;;;;;;;19.67;9.17;;;;;;;8.70;100.00;102502.34;5027113;28;20029;-77
2023/12/17 05:11:18;;;;;;;23.37;8.77;;;;;;;8.66;100.00;102499.06;5024524;28;20088;-78
2023/12/17 05:13:44;;;;;;;25.87;9.50;;;;;;;8.71;100.00;102501.41;5033115;28;20063;-78
2023/12/17 05:16:09;;;;;;;19.10;8.60;;;;;;;8.70;100.00;102488.19;5027293;28;20069;-78
2023/12/17 05:18:34;;;;;;;29.93;8.57;;;;;;;8.71;100.00;102484.53;5016217;28;20025;-78
2023/12/17 05:21:00;;;;;;;17.43;7.73;;;;;;;8.66;100.00;102482.22;5020541;28;20718;-78
2023/12/17 05:23:25;;;;;;;21.73;8.10;;;;;;;8.60;100.00;102462.19;5011606;28;20042;-77
2023/12/17 05:25:50;;;;;;;20.83;8.33;;;;;;;8.63;100.00;102471.78;5009469;28;20032;-79
2023/12/17 05:28:34;;;;;;;20.65;8.55;;;;;;;8.76;100.00;102458.47;5018852;28;20095;-76
2023/12/17 05:31:18;;;;;;;22.70;8.55;;;;;;;8.70;100.00;102466.88;5014241;28;20096;-78
2023/12/17 05:34:02;;;;;;;19.30;8.10;;;;;;;8.73;100.00;102459.50;5023916;28;20041;-78
2023/12/17 05:36:46;;;;;;;20.75;9.40;;;;;;;8.68;100.00;102456.31;5037434;28;20156;-77
2023/12/17 05:39:30;;;;;;;23.35;8.23;;;;;;;8.61;100.00;102437.25;5016674;28;20499;-78
2023/12/17 05:42:14;;;;;;;28.48;10.68;;;;;;;8.78;100.00;102467.19;5028912;28;20091;-78
2023/12/17 05:44:40;;;;;;;24.15;9.15;;;;;;;8.78;100.00;102454.72;5022951;28;20029;-77
2023/12/17 05:47:05;;;;;;;20.43;7.53;;;;;;;8.71;100.00;102437.50;5006946;28;20883;-78
2023/12/17 05:49:30;;;;;;;18.60;8.17;;;;;;;8.75;100.00;102454.09;5031226;28;20970;-78
2023/12/17 05:51:56;;;;;;;20.97;8.10;;;;;;;8.68;100.00;102448.34;5025234;28;20269;-78
2023/12/17 05:54:21;;;;;;;19.53;8.90;;;;;;;8.58;100.00;102439.31;5027701;28;20037;-77
2023/12/17 05:56:46;;;;;;;17.10;8.27;;;;;;;8.70;100.00;102457.06;5019756;28;20520;-77
2023/12/17 05:59:12;;;;;;;19.73;8.17;;;;;;;8.74;100.00;102449.75;5026361;28;20024;-78
2023/12/17 06:01:37;;;;;;;33.57;8.30;;;;;;;8.80;100.00;102458.16;5018284;28;20034;-78
2023/12/17 06:04:02;;;;;;;16.43;7.97;;;;;;;8.69;100.00;102436.75;4990830;28;20037;-79
2023/12/17 06:06:28;;;;;;;17.17;8.70;;;;;;;8.66;100.00;102442.25;4990402;28;20034;-77
2023/12/17 06:08:53;;;;;;;19.47;7.30;;;;;;;8.65;100.00;102429.94;5022169;28;20412;-79
2023/12/17 06:11:19;;;;;;;21.13;7.77;;;;;;;8.69;100.00;102447.41;4990362;28;20269;-78
2023/12/17 06:13:45;;;;;;;27.83;8.55;;;;;;;8.74;100.00;102457.72;4999558;28;20485;-77
2023/12/17 06:16:11;;;;;;;26.67;9.35;;;;;;;8.61;100.00;102444.41;5021169;28;20144;-78
2023/12/17 06:18:38;;;;;;;21.30;8.65;;;;;;;8.66;100.00;102445.81;5006419;28;20397;-77
2023/12/17 06:21:04;;;;;;;18.15;7.50;;;;;;;8.74;100.00;102436.41;5009525;28;20071;-78
2023/12/17 06:23:31;;;;;;;19.75;7.85;;;;;;;8.60;100.00;102432.06;4994225;28;20034;-78
2023/12/17 06:25:56;;;;;;;19.15;7.72;;;;;;;8.75;100.00;102440.78;5015881;28;20568;-78
2023/12/17 06:28:23;;;;;;;14.13;8.00;;;;;;;8.52;100.00;102411.31;5026097;28;20033;-77
2023/12/17 06:30:48;;;;;;;18.73;8.45;;;;;;;8.69;100.00;102439.41;5010513;28;20025;-77
2023/12/17 06:33:14;;;;;;;19.57;9.23;;;;;;;8.77;100.00;102428.19;5022684;28;20400;-78
2023/12/17 06:35:39;;;;;;;16.13;6.83;;;;;;;8.73;100.00;102414.25;5000513;28;20057;-78
2023/12/17 06:38:05;;;;;;;15.50;8.33;;;;;;;8.71;100.00;102421.50;4998826;28;20276;-78
2023/12/17 06:40:31;;;;;;;19.75;7.72;;;;;;;8.71;100.00;102404.66;5013708;28;20292;-78
2023/12/17 06:42:56;;;;;;;17.85;7.35;;;;;;;8.75;100.00;102409.66;5030496;28;20064;-78
2023/12/17 06:45:22;;;;;;;23.52;8.35;;;;;;;8.65;100.00;102393.50;5040627;28;20032;-78
2023/12/17 06:47:47;;;;;;;18.43;7.23;;;;;;;8.68;100.00;102405.75;5010596;28;20117;-78
2023/12/17 06:50:12;;;;;;;16.23;6.70;;;;;;;8.70;100.00;102419.78;5025347;28;20396;-78
2023/12/17 06:52:38;;;;;;;14.50;6.43;;;;;;;8.70;100.00;102398.50;5017137;28;20050;-78
2023/12/17 06:55:06;;;;;;;14.87;7.37;;;;;;;8.77;100.00;102423.72;5034650;28;20059;-78
2023/12/17 06:57:31;;;;;;;17.48;6.93;;;;;;;8.73;100.00;102419.56;5001396;28;20033;-77
2023/12/17 06:59:56;;;;;;;16.17;6.50;;;;;;;8.57;100.00;102418.94;5025229;28;20056;-78
2023/12/17 07:02:22;;;;;;;10.70;6.27;;;;;;;8.60;100.00;102440.06;5035863;28;20030;-79
2023/12/17 07:04:47;;;;;;;16.93;6.47;;;;;;;8.67;100.00;102451.97;5023298;28;20045;-78
2023/12/17 07:07:12;;;;;;;18.57;7.60;;;;;;;8.75;100.00;102452.28;5042272;28;20033;-78
2023/12/17 07:09:38;;;;;;;20.10;6.63;;;;;;;8.76;100.00;102451.31;5018588;28;20458;-79
2023/12/17 07:12:03;;;;;;;12.77;7.07;;;;;;;8.78;100.00;102449.41;5024093;28;20037;-79
2023/12/17 07:14:29;;;;;;;13.18;6.53;;;;;;;8.72;100.00;102436.53;5026042;28;20032;-78
2023/12/17 07:16:54;;;;;;;15.30;7.23;;;;;;;8.79;100.00;102427.13;5023672;28;20112;-78
2023/12/17 07:19:19;;;;;;;12.47;5.87;;;;;;;8.77;100.00;102415.72;5017952;28;20057;-77
2023/12/17 07:21:45;;;;;;;12.87;5.57;;;;;;;8.81;100.00;102417.22;5015433;28;20065;-77
2023/12/17 07:24:10;;;;;;;19.57;5.97;;;;;;;8.78;100.00;102401.47;5012351;28;20032;-78
2023/12/17 07:26:35;;;;;;;9.63;5.40;;;;;;;8.79;100.00;102395.16;5005516;28;20582;-78
2023/12/17 07:29:01;;;;;;;17.77;5.73;;;;;;;8.82;100.00;102389.63;5019486;28;20053;-77
2023/12/17 07:31:26;;;;;;;9.67;5.47;;;;;;;8.74;100.00;102377.84;5037477;28;20029;-77
2023/12/17 07:33:52;;;;;;;12.52;5.93;;;;;;;8.83;100.00;102387.81;5015256;28;20091;-79
2023/12/17 07:36:17;;;;;;;11.27;5.70;;;;;;;8.79;100.00;102397.00;4997881;28;20493;-79
2023/12/17 07:38:42;;;;;;;16.87;5.40;;;;;;;8.84;100.00;102395.69;5039381;28;20272;-79
2023/12/17 07:41:08;;;;;;;9.30;5.70;;;;;;;8.76;100.00;102387.41;5042065;28;20034;-77
2023/12/17 07:43:34;;;;;;;17.08;6.55;;;;;;;8.81;100.00;102409.22;5017363;28;20108;-79
2023/12/17 07:46:00;;;;;;;17.27;6.20;;;;;;;8.80;100.00;102409.34;5022483;28;20125;-79
2023/12/17 07:48:25;;;;;;;11.17;6.03;;;;;;;8.82;100.00;102380.78;5008478;28;20026;-78
2023/12/17 07:50:51;;;;;;;18.53;7.30;;;;;;;8.92;100.00;102392.50;5040482;28;20285;-78
2023/12/17 07:53:16;;;;;;;14.07;6.55;;;;;;;8.82;100.00;102386.94;5025598;28;20276;-78
2023/12/17 07:55:42;;;;;;;13.80;6.30;;;;;;;8.93;100.00;102398.66;5000002;28;20064;-79
2023/12/17 07:58:08;;;;;;;12.75;6.35;;;;;;;8.95;100.00;102389.59;5027178;28;20025;-78
2023/12/17 08:00:33;;;;;;;11.55;5.85;;;;;;;8.82;100.00;102376.28;5024965;28;20403;-78
2023/12/17 08:02:59;;;;;;;9.90;5.28;;;;;;;8.87;100.00;102384.84;5019082;28;20079;-80
2023/12/17 08:05:24;;;;;;;28.50;13.93;;;;;;;9.13;100.00;102432.69;4999976;28;20121;-79
2023/12/17 08:07:49;;;;;;;11.27;6.20;;;;;;;9.44;100.00;102465.09;5015886;28;20038;-78
2023/12/17 08:10:15;;;;;;;13.97;5.57;;;;;;;9.34;100.00;102408.94;5008844;28;20048;-79
2023/12/17 08:12:40;;;;;;;9.70;5.97;;;;;;;9.18;100.00;102368.41;5025295;28;20036;-79
2023/12/17 08:15:06;;;;;;;14.03;5.93;;;;;;;9.07;100.00;102353.22;5008285;28;20302;-78
2023/12/17 08:17:31;;;;;;;11.35;6.75;;;;;;;9.00;100.00;102357.28;5028156;28;20049;-78
2023/12/17 08:19:56;;;;;;;11.43;5.87;;;;;;;8.97;100.00;102362.84;5001597;28;20045;-79
2023/12/17 08:22:22;;;;;;;12.03;6.20;;;;;;;8.93;100.00;102343.56;4994672;28;20099;-78
2023/12/17 08:24:47;;;;;;;14.13;6.20;;;;;;;8.95;100.00;102364.78;5022021;28;20044;-79
2023/12/17 08:27:13;;;;;;;14.03;6.40;;;;;;;8.90;100.00;102372.22;5020498;28;20038;-78
2023/12/17 08:29:39;;;;;;;14.35;6.82;;;;;;;8.86;100.00;102367.13;5015244;28;20039;-78
2023/12/17 08:32:05;;;;;;;14.43;7.30;;;;;;;8.77;100.00;102367.78;4989814;28;20017;-79
2023/12/17 08:34:31;;;;;;;10.38;5.75;;;;;;;8.84;100.00;102378.84;5000966;28;20038;-79
2023/12/17 08:36:57;;;;;;;14.55;6.05;;;;;;;8.86;100.00;102377.78;5015924;28;20132;-78
2023/12/17 08:39:23;;;;;;;13.32;6.15;;;;;;;8.78;100.00;102388.16;5024793;28;20124;-79
2023/12/17 08:41:49;;;;;;;9.65;6.13;;;;;;;8.79;100.00;102384.53;5031690;28;20068;-78
2023/12/17 08:44:19;;;;;;;14.18;6.25;;;;;;;8.90;100.00;102378.44;5024094;28;20018;-79
2023/12/17 08:46:45;;;;;;;13.07;6.43;;;;;;;8.94;100.00;102357.72;5022380;28;20037;-78
2023/12/17 08:49:11;;;;;;;15.55;7.47;;;;;;;8.85;100.00;102364.59;5012198;28;20033;-77
2023/12/17 08:51:37;;;;;;;15.02;6.53;;;;;;;8.85;100.00;102365.44;5008892;28;20037;-79
2023/12/17 08:54:03;;;;;;;10.77;6.57;;;;;;;8.86;100.00;102360.97;5007772;28;20401;-79
2023/12/17 08:56:28;;;;;;;13.27;7.07;;;;;;;8.94;100.00;102376.38;5024665;28;20043;-78
2023/12/17 08:58:54;;;;;;;10.73;6.35;;;;;;;8.90;100.00;102351.78;5024865;28;20746;-78
2023/12/17 09:01:19;;;;;;;8.48;5.70;;;;;;;8.92;100.00;102357.84;5002861;28;20042;-78
2023/12/17 09:03:44;;;;;;;15.30;6.17;;;;;;;8.81;100.00;102332.00;5042415;28;20087;-79
2023/12/17 09:06:10;;;;;;;14.47;6.50;;;;;;;8.78;100.00;102334.91;5042512;28;20030;-77
2023/12/17 09:08:35;;;;;;;9.10;5.33;;;;;;;8.90;100.00;102345.59;4997223;28;20519;-78
2023/12/17 09:11:01;;;;;;;10.57;5.77;;;;;;;8.76;100.00;102343.97;5020181;28;20030;-83
2023/12/17 09:13:26;;;;;;;12.00;6.93;;;;;;;8.84;100.00;102347.75;5026088;28;20069;-80
2023/12/17 09:15:52;;;;;;;11.60;7.00;;;;;;;8.84;100.00;102342.41;5011108;28;20033;-79
2023/12/17 09:18:17;;;;;;;12.57;7.60;;;;;;;8.83;100.00;102334.56;5045535;28;20388;-80
2023/12/17 09:20:43;;;;;;;12.93;7.30;;;;;;;8.83;100.00;102315.91;5027246;28;20041;-80
2023/12/17 09:23:08;;;;;;;15.82;7.00;;;;;;;8.82;100.00;102317.72;5024372;28;20079;-78
2023/12/17 09:25:34;;;;;;;15.90;7.38;;;;;;;8.87;100.00;102318.25;5013724;28;20423;-79
2023/12/17 09:27:59;;;;;;;11.40;6.83;;;;;;;8.88;100.00;102317.25;5041566;28;20045;-80
2023/12/17 09:30:24;;;;;;;13.57;6.93;;;;;;;8.93;100.00;102319.59;5014405;28;20029;-79
2023/12/17 09:32:50;;;;;;;12.77;7.17;;;;;;;8.95;100.00;102311.50;5029783;28;20304;-78
2023/12/17 09:35:16;;;;;;;11.27;6.53;;;;;;;8.88;100.00;102298.63;5029576;28;20029;-79
2023/12/17 09:37:42;;;;;;;15.13;8.50;;;;;;;8.87;100.00;102318.25;5008104;28;20060;-80
2023/12/17 09:40:08;;;;;;;16.45;8.10;;;;;;;8.89;100.00;102318.09;5033650;28;20033;-80
2023/12/17 09:42:34;;;;;;;15.38;7.93;;;;;;;8.84;100.00;102294.47;5012719;28;20026;-78
2023/12/17 09:44:59;;;;;;;12.73;7.82;;;;;;;8.91;100.00;102307.34;5044851;28;20036;-80
2023/12/17 09:47:25;;;;;;;12.33;7.83;;;;;;;9.01;100.00;102297.69;5018262;28;20021;-78
2023/12/17 09:49:50;;;;;;;14.05;7.82;;;;;;;8.98;100.00;102297.94;5020216;28;20107;-80
2023/12/17 09:52:18;;;;;;;14.57;8.57;;;;;;;8.84;100.00;102298.97;5045104;28;20040;-80
2023/12/17 09:54:48;;;;;;;17.60;8.20;;;;;;;8.83;100.00;102300.78;5016624;28;20026;-80
2023/12/17 09:57:16;;;;;;;19.30;8.57;;;;;;;8.92;100.00;102311.69;5032946;28;20029;-80
2023/12/17 09:59:42;;;;;;;11.95;7.35;;;;;;;8.80;100.00;102281.50;5038563;28;20045;-79
2023/12/17 10:02:13;;;;;;;12.90;8.23;;;;;;;8.86;100.00;102283.72;5023211;28;20037;-80
2023/12/17 10:04:39;;;;;;;16.65;7.75;;;;;;;8.82;100.00;102276.91;5011243;28;20060;-78
2023/12/17 10:07:06;;;;;;;10.93;7.23;;;;;;;8.83;100.00;102273.31;5022176;28;20033;-78
2023/12/17 10:09:34;;;;;;;16.48;8.65;;;;;;;8.84;100.00;102267.00;5031977;28;20109;-79
2023/12/17 10:12:01;;;;;;;20.70;10.93;;;;;;;8.83;100.00;102257.31;5026840;28;20028;-78
2023/12/17 10:14:30;;;;;;;17.10;8.48;;;;;;;8.80;100.00;102244.22;5026284;28;20033;-80
2023/12/17 10:16:56;;;;;;;10.10;7.45;;;;;;;8.71;100.00;102253.75;5021369;28;20041;-77
2023/12/17 10:19:21;;;;;;;14.70;8.23;;;;;;;8.69;100.00;102247.69;5021867;28;20537;-78
2023/12/17 10:21:47;;;;;;;14.20;8.00;;;;;;;8.78;100.00;102236.38;5046205;28;20026;-77
2023/12/17 10:24:13;;;;;;;15.52;8.75;;;;;;;8.77;100.00;102229.31;5006399;28;20025;-77
2023/12/17 10:26:46;;;;;;;17.52;8.70;;;;;;;8.71;100.00;102212.94;5040388;28;20034;-78
2023/12/17 10:29:14;;;;;;;14.80;9.05;;;;;;;8.51;100.00;102179.84;5041907;28;20443;-79
2023/12/17 10:31:41;;;;;;;14.82;8.02;;;;;;;8.64;100.00;102228.56;5035744;28;20021;-77
2023/12/17 10:34:18;;;;;;;19.17;9.48;;;;;;;8.86;100.00;102228.63;5026702;28;20116;-78
2023/12/17 10:36:48;;;;;;;16.67;9.13;;;;;;;8.68;100.00;102203.38;5026436;28;20029;-77
2023/12/17 10:39:15;;;;;;;18.70;9.13;;;;;;;8.75;100.00;102206.44;5012209;28;20030;-77
2023/12/17 10:41:42;;;;;;;14.38;8.60;;;;;;;8.84;100.00;102197.75;5021906;28;20057;-77
2023/12/17 10:44:15;;;;;;;13.30;8.27;;;;;;;8.76;100.00;102193.00;5013952;28;20033;-77
2023/12/17 10:46:42;;;;;;;15.00;8.15;;;;;;;8.68;100.00;102168.75;5027907;28;20120;-80
2023/12/17 10:49:08;;;;;;;14.70;8.73;;;;;;;8.71;100.00;102181.88;5034504;28;20041;-77
2023/12/17 10:51:36;;;;;;;16.05;8.10;;;;;;;8.58;100.00;102175.75;5018555;28;20094;-77
2023/12/17 10:54:02;;;;;;;19.45;8.07;;;;;;;8.59;100.00;102177.44;5026328;28;20041;-78
2023/12/17 10:56:34;;;;;;;19.08;8.90;;;;;;;8.61;100.00;102183.50;5021437;28;20495;-77
2023/12/17 10:59:07;;;;;;;17.48;8.82;;;;;;;8.71;100.00;102188.97;5027714;28;20041;-77
2023/12/17 11:01:34;;;;;;;14.25;8.52;;;;;;;8.75;100.00;102188.63;5011478;28;20057;-78
2023/12/17 11:04:00;;;;;;;15.02;8.10;;;;;;;8.71;100.00;102179.19;5030604;28;20037;-78
2023/12/17 11:06:26;;;;;;;;;;;;;;;8.79;100.00;102181.28;5004151;28;20048;-79
2023/12/17 11:08:51;;;;;;;15.75;8.70;;;;;;;8.99;100.00;102171.75;5037587;28;19917;-79